(°C)
13°
14°
14°
15°
15°
15°
15°
(°C)
Ю
Ю
Ю
ЮЮЗ
ЮЮЗ
ЮЮЗ
ЮЮЗ
(км/ч)
28-47
28-50
29-51
28-50
28-50
27-48
25-46
(мм)
0
0
0
0
0
0
0
(%)
0
0
0
0
0
0
0

Sun elevation

/ 28.6°
sun-icon
UV 4
05:09
21:59
(356°)
05:31
21:39

METAR for Stora Risøya (ENSO)

Время Условия Температура/
Точка росы
Ветер Видимость Погода Облачность Давление Изменить Необработанный
VFR 13°C / 7°C 160º variable 140º to 200º 14kt >10km - Clouds and Visibility OK 1008 - ENSO 110650Z 16014KT 140V200 CAVOK 13/07 Q1008
VFR 12°C / 7°C 160º variable 130º to 200º 14kt >10km - Clouds and Visibility OK 1008 - ENSO 110620Z 16014KT 130V200 CAVOK 12/07 Q1008
VFR 11°C / 7°C 160º variable 130º to 190º 14kt >10km - Clouds and Visibility OK 1007 - ENSO 110550Z 16014KT 130V190 CAVOK 11/07 Q1007
VFR 10°C / 7°C 160º variable 130º to 210º 11kt >10km - Few Clouds 2000ft 1007 - ENSO 110520Z 16011KT 130V210 9999 FEW020 10/07 Q1007
VFR 10°C / 7°C 160º 13kt >10km - Few Clouds 2000ft 1006 - ENSO 110450Z 16013KT 9999 FEW020 10/07 Q1006
VFR 10°C / 7°C 170º variable 140º to 210º 11kt >10km - Few Clouds 2000ft 1006 - ENSO 110420Z 17011KT 140V210 9999 FEW020 10/07 Q1006
VFR 10°C / 7°C 160º 13kt >10km - Few Clouds 1400ft 1006 - ENSO 110350Z 16013KT 9999 FEW014 SCT020 10/07 Q1006
MVFR 10°C / 9°C 170º 22kt Gust 36kt >10km Light Showers Rain Few Clouds 800ft 997 - ENSO 101720Z 17022G36KT 9999 -SHRA FEW008 SCT012 BKN015 10/09 Q0997
MVFR 11°C / 9°C 180º 26kt Gust 40kt >10km in the Vicinity Showers Few Clouds 800ft 996 - ENSO 101650Z 18026G40KT 9999 VCSH FEW008 SCT012 BKN015 11/09 Q0996
MVFR 13°C / 11°C 170º 20kt Gust 39kt >10km in the Vicinity Showers Few Clouds 800ft 995 - ENSO 101620Z 17020G39KT 9999 VCSH FEW008 SCT013 BKN016 13/11 Q0995
MVFR 14°C / 11°C 120º 16kt 9000m Light Rain Few Clouds 800ft 993 - ENSO 101550Z 12016KT 9000 -RA FEW008 SCT022 BKN030 14/11 Q0993
VFR 13°C / 11°C 110º 12kt >10km - Few Clouds 1000ft 993 - ENSO 101520Z 11012KT 9999 FEW010 BKN035 13/11 Q0993
VFR 13°C / 11°C 110º 13kt >10km Light Rain Few Clouds 1000ft 993 - ENSO 101450Z 11013KT 9999 -RA FEW010 SCT020 BKN034 13/11 Q0993 RERAGS
VFR 13°C / 11°C 100º 11kt >10km Light Rain Scattered Clouds 3000ft 994 - ENSO 101420Z 10011KT 9999 -RA SCT030 BKN060 13/11 Q0994
MVFR 13°C / 11°C 110º 11kt 8000m Rain Scattered Clouds 3500ft 995 - ENSO 101350Z 11011KT 8000 RA SCT035 BKN050 13/11 Q0995
VFR 16°C / 9°C 110º 11kt >10km Light Rain Few Clouds 3500ft 995 - ENSO 101320Z 11011KT 9999 -RA FEW035 BKN060 16/09 Q0995
VFR 16°C / 9°C 100º 10kt >10km - Few Clouds 3700ft 995 - ENSO 101250Z 10010KT 9999 FEW037 BKN070 16/09 Q0995
VFR 16°C / 9°C 100º 12kt >10km - Few Clouds 3700ft 995 - ENSO 101220Z 10012KT 9999 FEW037 BKN070 16/09 Q0995
VFR 16°C / 9°C 90º 8kt >10km - Scattered Clouds 3600ft 996 - ENSO 101150Z 09008KT 9999 SCT036 BKN080 16/09 Q0996
VFR 17°C / 10°C 90º variable 020º to 160º 7kt >10km - Scattered Clouds 3600ft 996 - ENSO 101120Z 09007KT 020V160 9999 SCT036 BKN140 17/10 Q0996
VFR 14°C / 11°C variable 5kt >10km - Scattered Clouds 3600ft 997 - ENSO 101050Z VRB05KT 9999 SCT036 BKN070 14/11 Q0997
VFR 12°C / 10°C variable 2kt >10km - Few Clouds 2500ft 998 - ENSO 100950Z VRB02KT 9999 FEW025 BKN040 12/10 Q0998
VFR 13°C / 10°C variable 3kt >10km - Scattered Clouds 2000ft 998 - ENSO 100920Z VRB03KT 9999 SCT020 BKN070 13/10 Q0998
VFR 13°C / 11°C variable 3kt >10km - Scattered Clouds 2000ft 998 - ENSO 100850Z VRB03KT 9999 SCT020 BKN070 13/11 Q0998

VFR

13°C / 7°C

[Больше]
Ветер 160º variable 140º to 200º 14kt
Видимость >10km
Погода -
Облачность Clouds and Visibility OK
Давление 1008
Изменить -
Необработанный ENSO 110650Z 16014KT 140V200 CAVOK 13/07 Q1008

VFR

12°C / 7°C

[Больше]
Ветер 160º variable 130º to 200º 14kt
Видимость >10km
Погода -
Облачность Clouds and Visibility OK
Давление 1008
Изменить -
Необработанный ENSO 110620Z 16014KT 130V200 CAVOK 12/07 Q1008

VFR

11°C / 7°C

[Больше]
Ветер 160º variable 130º to 190º 14kt
Видимость >10km
Погода -
Облачность Clouds and Visibility OK
Давление 1007
Изменить -
Необработанный ENSO 110550Z 16014KT 130V190 CAVOK 11/07 Q1007

VFR

10°C / 7°C

[Больше]
Ветер 160º variable 130º to 210º 11kt
Видимость >10km
Погода -
Облачность Few Clouds 2000ft
Давление 1007
Изменить -
Необработанный ENSO 110520Z 16011KT 130V210 9999 FEW020 10/07 Q1007

VFR

10°C / 7°C

[Больше]
Ветер 160º 13kt
Видимость >10km
Погода -
Облачность Few Clouds 2000ft
Давление 1006
Изменить -
Необработанный ENSO 110450Z 16013KT 9999 FEW020 10/07 Q1006

VFR

10°C / 7°C

[Больше]
Ветер 170º variable 140º to 210º 11kt
Видимость >10km
Погода -
Облачность Few Clouds 2000ft
Давление 1006
Изменить -
Необработанный ENSO 110420Z 17011KT 140V210 9999 FEW020 10/07 Q1006

VFR

10°C / 7°C

[Больше]
Ветер 160º 13kt
Видимость >10km
Погода -
Облачность Few Clouds 1400ft
Давление 1006
Изменить -
Необработанный ENSO 110350Z 16013KT 9999 FEW014 SCT020 10/07 Q1006

MVFR

10°C / 9°C

[Больше]
Ветер 170º 22kt Gust 36kt
Видимость >10km
Погода Light Showers Rain
Облачность Few Clouds 800ft
Давление 997
Изменить -
Необработанный ENSO 101720Z 17022G36KT 9999 -SHRA FEW008 SCT012 BKN015 10/09 Q0997

MVFR

11°C / 9°C

[Больше]
Ветер 180º 26kt Gust 40kt
Видимость >10km
Погода in the Vicinity Showers
Облачность Few Clouds 800ft
Давление 996
Изменить -
Необработанный ENSO 101650Z 18026G40KT 9999 VCSH FEW008 SCT012 BKN015 11/09 Q0996

MVFR

13°C / 11°C

[Больше]
Ветер 170º 20kt Gust 39kt
Видимость >10km
Погода in the Vicinity Showers
Облачность Few Clouds 800ft
Давление 995
Изменить -
Необработанный ENSO 101620Z 17020G39KT 9999 VCSH FEW008 SCT013 BKN016 13/11 Q0995

MVFR

14°C / 11°C

[Больше]
Ветер 120º 16kt
Видимость 9000m
Погода Light Rain
Облачность Few Clouds 800ft
Давление 993
Изменить -
Необработанный ENSO 101550Z 12016KT 9000 -RA FEW008 SCT022 BKN030 14/11 Q0993

VFR

13°C / 11°C

[Больше]
Ветер 110º 12kt
Видимость >10km
Погода -
Облачность Few Clouds 1000ft
Давление 993
Изменить -
Необработанный ENSO 101520Z 11012KT 9999 FEW010 BKN035 13/11 Q0993

VFR

13°C / 11°C

[Больше]
Ветер 110º 13kt
Видимость >10km
Погода Light Rain
Облачность Few Clouds 1000ft
Давление 993
Изменить -
Необработанный ENSO 101450Z 11013KT 9999 -RA FEW010 SCT020 BKN034 13/11 Q0993 RERAGS

VFR

13°C / 11°C

[Больше]
Ветер 100º 11kt
Видимость >10km
Погода Light Rain
Облачность Scattered Clouds 3000ft
Давление 994
Изменить -
Необработанный ENSO 101420Z 10011KT 9999 -RA SCT030 BKN060 13/11 Q0994

MVFR

13°C / 11°C

[Больше]
Ветер 110º 11kt
Видимость 8000m
Погода Rain
Облачность Scattered Clouds 3500ft
Давление 995
Изменить -
Необработанный ENSO 101350Z 11011KT 8000 RA SCT035 BKN050 13/11 Q0995

VFR

16°C / 9°C

[Больше]
Ветер 110º 11kt
Видимость >10km
Погода Light Rain
Облачность Few Clouds 3500ft
Давление 995
Изменить -
Необработанный ENSO 101320Z 11011KT 9999 -RA FEW035 BKN060 16/09 Q0995

VFR

16°C / 9°C

[Больше]
Ветер 100º 10kt
Видимость >10km
Погода -
Облачность Few Clouds 3700ft
Давление 995
Изменить -
Необработанный ENSO 101250Z 10010KT 9999 FEW037 BKN070 16/09 Q0995

VFR

16°C / 9°C

[Больше]
Ветер 100º 12kt
Видимость >10km
Погода -
Облачность Few Clouds 3700ft
Давление 995
Изменить -
Необработанный ENSO 101220Z 10012KT 9999 FEW037 BKN070 16/09 Q0995

VFR

16°C / 9°C

[Больше]
Ветер 90º 8kt
Видимость >10km
Погода -
Облачность Scattered Clouds 3600ft
Давление 996
Изменить -
Необработанный ENSO 101150Z 09008KT 9999 SCT036 BKN080 16/09 Q0996

VFR

17°C / 10°C

[Больше]
Ветер 90º variable 020º to 160º 7kt
Видимость >10km
Погода -
Облачность Scattered Clouds 3600ft
Давление 996
Изменить -
Необработанный ENSO 101120Z 09007KT 020V160 9999 SCT036 BKN140 17/10 Q0996

VFR

14°C / 11°C

[Больше]
Ветер variable 5kt
Видимость >10km
Погода -
Облачность Scattered Clouds 3600ft
Давление 997
Изменить -
Необработанный ENSO 101050Z VRB05KT 9999 SCT036 BKN070 14/11 Q0997

VFR

12°C / 10°C

[Больше]
Ветер variable 2kt
Видимость >10km
Погода -
Облачность Few Clouds 2500ft
Давление 998
Изменить -
Необработанный ENSO 100950Z VRB02KT 9999 FEW025 BKN040 12/10 Q0998

VFR

13°C / 10°C

[Больше]
Ветер variable 3kt
Видимость >10km
Погода -
Облачность Scattered Clouds 2000ft
Давление 998
Изменить -
Необработанный ENSO 100920Z VRB03KT 9999 SCT020 BKN070 13/10 Q0998

VFR

13°C / 11°C

[Больше]
Ветер variable 3kt
Видимость >10km
Погода -
Облачность Scattered Clouds 2000ft
Давление 998
Изменить -
Необработанный ENSO 100850Z VRB03KT 9999 SCT020 BKN070 13/11 Q0998

TAF for Stora Risøya (ENSO)

From till


From till Wind 160º 13kt. Visibility 10km or more. Few Clouds 2000ft.
Becoming from till Wind 220º 10kt. Visibility 10km or more. Few Clouds 2000ft.

Необработанный: TAF ENSO 110500Z 1106/1115 16013KT 9999 FEW020 BECMG 1112/1115 22010KT

Current satellite and rain images for Stora Risøya, Норвегия

  • Осадки:
  • <1 мм
  • 1-2 мм
  • 2-5 мм
  • >5 мм

Указатель местности находится на Stora Risøya. [Больше]

The real-time satellite image combines visible light during daytime with infrared radiation during nighttime. At night, the image is not dark as infrared radiation can detect temperature differences. Unfortunately, low clouds and fog are difficult to distinguish from ground temperatures and thus can be almost invisible during the night. Meteosat satellite images for Europe are updated in real-time every 5 minutes. GOES-16/GOES-17 (North & South America) and Himawari (Asia) images update every 10 minutes.

Вероятность осадков оценивается по данным радиолокаторов и спутников. Спутниковые данные о возможности осадков в ночное время менее точные, чем дневные данные. Оранжевыми крестами отмечаются места,где обнаруживается молния (болееЕвропа).

Копирайт 2021 EUMETSAT / meteoblue. Данные о молниях предоставляются со стороны nowcast.

Радарный и сверхкраткосрочный прогноз осадков для Stora Risøya

Индикатор местности находится на Stora Risøya. Анимация показывает радар осадков за последний час, а также прогноз погоды для1h. Умеренная морось или легкий снег могут быть незаметны для радара. Интенсивность осадковмаркированна цветной кодировкой, начиная со светло-синего и заканчивая темно-пурпурным.

Погода в настоящий момент и предупреждения

EUMETNET – MeteoAlarm

pictomap

Источник: Meteorologisk institutt

Возможны временные задержки между сведениями данного веб сайта и веб сайта www.meteoalarm.euwww.meteoalarm.eu.